Time;durP1;ratioP1;P1;durP2;ratioP2;P2;SDS_P1;SDS_P2;PMS_P1;PMS_P2;Temp;Humidity;BMP_temperature;BMP_pressure;BME280_temperature;BME280_humidity;BME280_pressure;Samples;Min_cycle;Max_cycle;Signal;HPM_P1;HPM_P2
2021/09/13 00:00:02;;;;;;;10.05;4.90;;;;;;;;;;5072599;28;20040;-70
2021/09/13 00:02:29;;;;;;;10.25;4.47;;;;;;;;;;5072637;28;20400;-68
2021/09/13 00:04:55;;;;;;;14.27;4.55;;;;;;;;;;5072675;28;20037;-69
2021/09/13 00:07:21;;;;;;;8.07;4.65;;;;;;;;;;5072232;28;20060;-68
2021/09/13 00:09:47;;;;;;;10.63;5.00;;;;;;;;;;5072655;28;20135;-69
2021/09/13 00:12:13;;;;;;;9.70;4.53;;;;;;;;;;5072742;28;20124;-69
2021/09/13 00:14:39;;;;;;;13.85;4.70;;;;;;;;;;5072557;28;20146;-70
2021/09/13 00:17:05;;;;;;;16.48;4.68;;;;;;;;;;5072447;28;20029;-69
2021/09/13 00:19:31;;;;;;;9.30;4.75;;;;;;;;;;5072461;28;20035;-69
2021/09/13 00:21:57;;;;;;;9.45;5.05;;;;;;;;;;5072056;28;20028;-69
2021/09/13 00:24:24;;;;;;;7.75;4.57;;;;;;;;;;5072388;28;20093;-69
2021/09/13 00:26:50;;;;;;;7.72;4.07;;;;;;;;;;5072300;28;20033;-70
2021/09/13 00:29:16;;;;;;;8.48;4.57;;;;;;;;;;5073037;28;20036;-69
2021/09/13 00:31:42;;;;;;;5.88;4.20;;;;;;;;;;5072366;28;20039;-69
2021/09/13 00:34:08;;;;;;;7.97;4.47;;;;;;;;;;5072161;28;20040;-68
2021/09/13 00:36:34;;;;;;;8.23;4.75;;;;;;;;;;5072187;28;20033;-69
2021/09/13 00:39:00;;;;;;;7.97;4.47;;;;;;;;;;5072336;28;20044;-69
2021/09/13 00:41:26;;;;;;;6.72;4.40;;;;;;;;;;5072221;28;20036;-69
2021/09/13 00:43:52;;;;;;;7.32;4.40;;;;;;;;;;5072032;28;20485;-68
2021/09/13 00:46:19;;;;;;;8.02;4.50;;;;;;;;;;5072202;28;20367;-69
2021/09/13 00:48:45;;;;;;;8.63;4.40;;;;;;;;;;5072289;28;20041;-69
2021/09/13 00:51:11;;;;;;;7.35;4.53;;;;;;;;;;5072590;28;20107;-69
2021/09/13 00:53:37;;;;;;;7.22;4.18;;;;;;;;;;5075778;28;20036;-70
2021/09/13 00:56:04;;;;;;;5.05;4.00;;;;;;;;;;5075964;28;20033;-69
2021/09/13 00:58:30;;;;;;;6.40;4.35;;;;;;;;;;5073875;28;20080;-70
2021/09/13 01:00:56;;;;;;;7.28;4.28;;;;;;;;;;5073012;28;20398;-70
2021/09/13 01:03:22;;;;;;;7.50;4.18;;;;;;;;;;5072479;28;20036;-69
2021/09/13 01:05:49;;;;;;;4.50;3.83;;;;;;;;;;5074680;28;20107;-70
2021/09/13 01:08:15;;;;;;;7.00;3.90;;;;;;;;;;5075126;28;20063;-69
2021/09/13 01:11:19;;;;;;;8.35;4.22;;;;;;;;;;5075246;28;20029;-70
2021/09/13 01:13:45;;;;;;;6.93;4.20;;;;;;;;;;5074954;28;20028;-69
2021/09/13 01:16:11;;;;;;;11.00;3.95;;;;;;;;;;5075264;28;20405;-69
2021/09/13 01:18:37;;;;;;;7.60;4.05;;;;;;;;;;5075493;28;20495;-70
2021/09/13 01:21:04;;;;;;;8.65;4.20;;;;;;;;;;5075067;28;20032;-68
2021/09/13 01:23:31;;;;;;;5.70;4.55;;;;;;;;;;5075193;28;20100;-70
2021/09/13 01:25:58;;;;;;;11.95;4.70;;;;;;;;;;5075268;28;20037;-70
2021/09/13 01:28:24;;;;;;;13.15;4.70;;;;;;;;;;5074907;28;20043;-70
2021/09/13 01:30:50;;;;;;;8.07;4.50;;;;;;;;;;5075086;28;20037;-69
2021/09/13 01:33:16;;;;;;;7.97;4.45;;;;;;;;;;5075162;28;20041;-69
2021/09/13 01:35:43;;;;;;;12.65;4.78;;;;;;;;;;5074742;28;20086;-69
2021/09/13 01:38:09;;;;;;;10.73;4.55;;;;;;;;;;5074741;28;20119;-69
2021/09/13 01:40:35;;;;;;;8.88;4.63;;;;;;;;;;5074947;28;20032;-69
2021/09/13 01:43:02;;;;;;;13.35;4.88;;;;;;;;;;5074796;28;20029;-69
2021/09/13 01:45:28;;;;;;;8.82;4.38;;;;;;;;;;5074928;28;20033;-70
2021/09/13 01:47:54;;;;;;;8.98;4.95;;;;;;;;;;5074919;28;20038;-68
2021/09/13 01:50:21;;;;;;;11.40;4.47;;;;;;;;;;5074750;28;20033;-69
2021/09/13 01:52:47;;;;;;;10.30;4.30;;;;;;;;;;5074776;28;20037;-69
2021/09/13 01:55:13;;;;;;;10.65;4.47;;;;;;;;;;5075073;28;20107;-69
2021/09/13 01:57:39;;;;;;;10.68;4.70;;;;;;;;;;5074596;28;20056;-69
2021/09/13 02:00:07;;;;;;;11.32;4.72;;;;;;;;;;5074755;28;20078;-69
2021/09/13 02:02:33;;;;;;;9.88;5.20;;;;;;;;;;5074076;28;20028;-70
2021/09/13 02:04:59;;;;;;;9.45;4.38;;;;;;;;;;5074435;28;20504;-70
2021/09/13 02:07:25;;;;;;;13.75;4.70;;;;;;;;;;5074355;28;20035;-69
2021/09/13 02:09:52;;;;;;;10.18;4.80;;;;;;;;;;5074727;28;20040;-63
2021/09/13 02:12:22;;;;;;;10.65;4.80;;;;;;;;;;5070420;28;20036;-68
2021/09/13 02:14:48;;;;;;;11.18;4.80;;;;;;;;;;5071343;28;20044;-73
2021/09/13 02:17:14;;;;;;;10.32;4.97;;;;;;;;;;5070681;28;20434;-74
2021/09/13 02:19:41;;;;;;;12.65;4.68;;;;;;;;;;5070121;28;20039;-67
2021/09/13 02:22:07;;;;;;;8.27;4.55;;;;;;;;;;5070166;28;20032;-71
2021/09/13 02:24:33;;;;;;;7.00;4.63;;;;;;;;;;5070026;28;20037;-72
2021/09/13 02:26:59;;;;;;;9.13;4.53;;;;;;;;;;5069932;28;20032;-61
2021/09/13 02:29:25;;;;;;;10.32;4.10;;;;;;;;;;5070712;28;20400;-74
2021/09/13 02:31:51;;;;;;;11.95;5.10;;;;;;;;;;5070650;28;20044;-69
2021/09/13 02:34:17;;;;;;;12.25;4.75;;;;;;;;;;5070322;28;20536;-73
2021/09/13 02:36:43;;;;;;;8.63;4.50;;;;;;;;;;5069586;28;20493;-76
2021/09/13 02:39:09;;;;;;;10.52;4.80;;;;;;;;;;5069300;28;20040;-64
2021/09/13 02:41:36;;;;;;;9.65;4.40;;;;;;;;;;5070521;28;20086;-69
2021/09/13 02:44:02;;;;;;;12.07;4.90;;;;;;;;;;5069878;28;20509;-75
2021/09/13 02:46:28;;;;;;;10.73;5.13;;;;;;;;;;5069667;28;20203;-65
2021/09/13 02:48:55;;;;;;;13.65;5.35;;;;;;;;;;5072708;28;20033;-62
2021/09/13 02:51:21;;;;;;;14.23;5.05;;;;;;;;;;5073091;28;20032;-64
2021/09/13 02:53:47;;;;;;;16.42;5.22;;;;;;;;;;5069768;28;20036;-71
2021/09/13 02:56:13;;;;;;;16.95;5.90;;;;;;;;;;5068919;28;20256;-71
2021/09/13 02:58:39;;;;;;;12.73;5.32;;;;;;;;;;5069800;28;20056;-63
2021/09/13 03:01:05;;;;;;;11.10;5.03;;;;;;;;;;5070007;28;20107;-61
2021/09/13 03:03:31;;;;;;;11.25;4.80;;;;;;;;;;5069981;28;20056;-61
2021/09/13 03:05:57;;;;;;;12.38;4.63;;;;;;;;;;5070239;28;20135;-62
2021/09/13 03:08:23;;;;;;;8.70;4.43;;;;;;;;;;5069908;28;20041;-72
2021/09/13 03:10:49;;;;;;;6.18;4.50;;;;;;;;;;5069618;28;20032;-72
2021/09/13 03:13:15;;;;;;;10.43;4.40;;;;;;;;;;5069054;28;20040;-68
2021/09/13 03:15:41;;;;;;;10.77;4.53;;;;;;;;;;5069194;28;20031;-73
2021/09/13 03:18:07;;;;;;;9.23;4.40;;;;;;;;;;5069261;28;20580;-71
2021/09/13 03:20:33;;;;;;;8.10;4.28;;;;;;;;;;5072052;28;20334;-70
2021/09/13 03:22:59;;;;;;;6.35;4.28;;;;;;;;;;5071892;28;20032;-63
2021/09/13 03:25:26;;;;;;;9.43;4.47;;;;;;;;;;5072526;28;20035;-64
2021/09/13 03:27:52;;;;;;;7.70;4.38;;;;;;;;;;5071597;28;20432;-70
2021/09/13 03:30:18;;;;;;;9.70;4.20;;;;;;;;;;5069792;28;20032;-60
2021/09/13 03:32:45;;;;;;;10.30;4.65;;;;;;;;;;5072902;28;20078;-62
2021/09/13 03:35:11;;;;;;;8.98;4.20;;;;;;;;;;5071132;28;20040;-62
2021/09/13 03:37:37;;;;;;;6.07;4.30;;;;;;;;;;5070943;28;20044;-63
2021/09/13 03:40:03;;;;;;;13.25;4.57;;;;;;;;;;5071616;28;20385;-62
2021/09/13 03:42:29;;;;;;;14.85;4.78;;;;;;;;;;5071966;28;20443;-69
2021/09/13 03:44:55;;;;;;;14.95;5.00;;;;;;;;;;5071680;28;20539;-65
2021/09/13 03:47:22;;;;;;;11.82;4.75;;;;;;;;;;5071912;28;20032;-62
2021/09/13 03:49:48;;;;;;;9.50;4.82;;;;;;;;;;5072458;28;20114;-62
2021/09/13 03:52:14;;;;;;;9.48;4.95;;;;;;;;;;5070959;28;20366;-70
2021/09/13 03:54:40;;;;;;;17.95;4.97;;;;;;;;;;5070360;28;20036;-75
2021/09/13 03:57:06;;;;;;;12.87;4.70;;;;;;;;;;5069850;28;20134;-62
2021/09/13 03:59:33;;;;;;;7.72;4.53;;;;;;;;;;5071992;28;20037;-75
2021/09/13 04:01:59;;;;;;;12.13;4.95;;;;;;;;;;5070130;28;20071;-65
2021/09/13 04:04:27;;;;;;;11.48;5.28;;;;;;;;;;5069244;28;20505;-70
2021/09/13 04:07:00;;;;;;;10.13;5.47;;;;;;;;;;5069866;28;20033;-67
2021/09/13 04:11:58;;;;;;;11.82;4.95;;;;;;;;;;5072295;28;20094;-63
2021/09/13 04:14:25;;;;;;;13.43;5.22;;;;;;;;;;5072471;28;20032;-62
2021/09/13 04:16:52;;;;;;;15.32;5.88;;;;;;;;;;5070458;28;20094;-65
2021/09/13 04:19:18;;;;;;;12.90;5.68;;;;;;;;;;5070123;28;20458;-74
2021/09/13 04:21:45;;;;;;;13.15;4.97;;;;;;;;;;5070378;28;20108;-62
2021/09/13 04:24:11;;;;;;;11.48;4.88;;;;;;;;;;5070786;28;20032;-70
2021/09/13 04:26:37;;;;;;;11.02;5.18;;;;;;;;;;5071036;28;20035;-64
2021/09/13 04:29:03;;;;;;;12.73;4.80;;;;;;;;;;5071878;28;20478;-71
2021/09/13 04:31:30;;;;;;;12.93;5.07;;;;;;;;;;5074224;28;20060;-62
2021/09/13 04:33:56;;;;;;;13.65;4.93;;;;;;;;;;5074711;28;20466;-62
2021/09/13 04:36:22;;;;;;;8.90;5.05;;;;;;;;;;5076103;28;20033;-64
2021/09/13 04:38:48;;;;;;;12.75;4.85;;;;;;;;;;5075321;28;20059;-62
2021/09/13 04:41:14;;;;;;;10.55;4.97;;;;;;;;;;5073407;28;20043;-69
2021/09/13 04:43:40;;;;;;;10.05;4.93;;;;;;;;;;5071927;28;20036;-75
2021/09/13 04:46:06;;;;;;;18.50;6.07;;;;;;;;;;5073647;28;20025;-73
2021/09/13 04:48:32;;;;;;;7.80;4.60;;;;;;;;;;5074417;28;20047;-67
2021/09/13 04:50:58;;;;;;;10.60;5.00;;;;;;;;;;5075739;28;20032;-68
2021/09/13 04:53:24;;;;;;;8.15;4.63;;;;;;;;;;5073438;28;20362;-73
2021/09/13 04:55:51;;;;;;;13.90;5.57;;;;;;;;;;5072213;28;20059;-65
2021/09/13 04:58:17;;;;;;;9.05;4.68;;;;;;;;;;5071401;28;20060;-76
2021/09/13 05:00:43;;;;;;;21.00;5.53;;;;;;;;;;5071937;28;20029;-76
2021/09/13 05:03:09;;;;;;;11.00;4.93;;;;;;;;;;5072889;28;20435;-73
2021/09/13 05:05:35;;;;;;;40.65;5.93;;;;;;;;;;5071502;28;20035;-73
2021/09/13 05:08:01;;;;;;;34.88;6.70;;;;;;;;;;5072146;28;20082;-72
2021/09/13 05:10:27;;;;;;;36.90;6.22;;;;;;;;;;5073490;28;20067;-65
2021/09/13 05:12:53;;;;;;;24.92;5.90;;;;;;;;;;5074989;28;20039;-69
2021/09/13 05:15:20;;;;;;;23.52;6.03;;;;;;;;;;5074611;28;20029;-67
2021/09/13 05:17:46;;;;;;;18.08;6.30;;;;;;;;;;5073986;28;20527;-71
2021/09/13 05:20:13;;;;;;;27.70;5.47;;;;;;;;;;5070883;28;20405;-64
2021/09/13 05:22:39;;;;;;;26.58;6.03;;;;;;;;;;5075235;28;20111;-62
2021/09/13 05:25:05;;;;;;;29.70;6.13;;;;;;;;;;5074691;28;20040;-64
2021/09/13 05:27:31;;;;;;;21.75;5.55;;;;;;;;;;5073942;28;20029;-62
2021/09/13 05:29:57;;;;;;;24.08;6.18;;;;;;;;;;5074784;28;20033;-71
2021/09/13 05:32:23;;;;;;;21.38;6.32;;;;;;;;;;5073675;28;20036;-62
2021/09/13 05:34:50;;;;;;;16.48;5.47;;;;;;;;;;5075314;28;20546;-61
2021/09/13 05:37:16;;;;;;;17.45;5.95;;;;;;;;;;5074113;28;20503;-62
2021/09/13 05:39:42;;;;;;;14.73;6.03;;;;;;;;;;5074552;28;20033;-65
2021/09/13 05:42:08;;;;;;;12.35;5.25;;;;;;;;;;5074198;28;20032;-62
2021/09/13 05:44:34;;;;;;;14.70;5.47;;;;;;;;;;5075136;28;20033;-61
2021/09/13 05:47:00;;;;;;;13.73;5.15;;;;;;;;;;5075049;28;20033;-67
2021/09/13 05:49:26;;;;;;;17.83;5.50;;;;;;;;;;5075260;28;20046;-61
2021/09/13 05:51:52;;;;;;;15.57;5.32;;;;;;;;;;5074810;28;20033;-67
2021/09/13 05:54:22;;;;;;;10.10;4.57;;;;;;;;;;5074324;28;20090;-62
2021/09/13 05:56:52;;;;;;;13.45;4.93;;;;;;;;;;5074631;28;20032;-62
2021/09/13 05:59:19;;;;;;;9.88;4.57;;;;;;;;;;5074564;28;20481;-62
2021/09/13 06:01:46;;;;;;;11.23;5.40;;;;;;;;;;5073367;28;20033;-63
2021/09/13 06:04:12;;;;;;;10.77;4.47;;;;;;;;;;5074461;28;20378;-61
2021/09/13 06:06:38;;;;;;;14.85;5.80;;;;;;;;;;5074481;28;20031;-62
2021/09/13 06:09:04;;;;;;;21.45;5.38;;;;;;;;;;5074677;28;20037;-61
2021/09/13 06:11:30;;;;;;;23.55;5.45;;;;;;;;;;5074542;28;20466;-67
2021/09/13 06:13:56;;;;;;;19.75;5.13;;;;;;;;;;5072762;28;20075;-61
2021/09/13 06:16:22;;;;;;;15.75;4.45;;;;;;;;;;5074253;28;20036;-61
2021/09/13 06:18:48;;;;;;;10.23;5.28;;;;;;;;;;5074039;28;20040;-63
2021/09/13 06:21:15;;;;;;;20.55;5.63;;;;;;;;;;5074064;28;20033;-61
2021/09/13 06:23:41;;;;;;;20.40;5.05;;;;;;;;;;5074236;28;20060;-63
2021/09/13 06:26:07;;;;;;;14.02;5.90;;;;;;;;;;5074143;28;20562;-62
2021/09/13 06:28:33;;;;;;;21.48;5.88;;;;;;;;;;5074123;28;20120;-65
2021/09/13 06:30:59;;;;;;;10.57;5.38;;;;;;;;;;5073758;28;20064;-61
2021/09/13 06:33:25;;;;;;;16.23;5.05;;;;;;;;;;5073178;28;20091;-67
2021/09/13 06:35:51;;;;;;;30.95;7.65;;;;;;;;;;5073899;28;20032;-65
2021/09/13 06:38:17;;;;;;;14.82;5.75;;;;;;;;;;5072266;28;20074;-62
2021/09/13 06:40:43;;;;;;;9.02;4.30;;;;;;;;;;5073534;28;20051;-64
2021/09/13 06:43:10;;;;;;;10.93;4.78;;;;;;;;;;5073283;28;20036;-62
2021/09/13 06:45:41;;;;;;;14.25;5.20;;;;;;;;;;5073975;28;20404;-61
2021/09/13 06:48:09;;;;;;;9.63;4.85;;;;;;;;;;5073214;28;20517;-62
2021/09/13 06:50:35;;;;;;;15.80;5.38;;;;;;;;;;5073592;28;20409;-62
2021/09/13 06:53:01;;;;;;;15.82;5.45;;;;;;;;;;5073355;28;20091;-64
2021/09/13 06:55:27;;;;;;;9.73;4.82;;;;;;;;;;5073633;28;20127;-60
2021/09/13 06:57:53;;;;;;;10.73;4.32;;;;;;;;;;5073283;28;20123;-65
2021/09/13 07:00:20;;;;;;;9.10;3.95;;;;;;;;;;5073158;28;20039;-64
2021/09/13 07:02:46;;;;;;;7.88;4.50;;;;;;;;;;5073313;28;20040;-65
2021/09/13 07:05:12;;;;;;;9.35;3.80;;;;;;;;;;5073379;28;20044;-65
2021/09/13 07:07:39;;;;;;;14.73;3.92;;;;;;;;;;5073264;28;20056;-65
2021/09/13 07:10:06;;;;;;;11.20;4.47;;;;;;;;;;5071962;28;20044;-65
2021/09/13 07:12:32;;;;;;;7.18;4.18;;;;;;;;;;5071715;28;20564;-70
2021/09/13 07:14:58;;;;;;;10.13;4.45;;;;;;;;;;5072456;28;20025;-67
2021/09/13 07:17:24;;;;;;;8.75;4.65;;;;;;;;;;5072728;28;20120;-65
2021/09/13 07:19:51;;;;;;;10.95;4.47;;;;;;;;;;5073514;28;20516;-65
2021/09/13 07:22:18;;;;;;;6.53;4.10;;;;;;;;;;5073030;28;20039;-70
2021/09/13 07:24:44;;;;;;;6.65;4.18;;;;;;;;;;5073367;28;20036;-66
2021/09/13 07:27:13;;;;;;;7.30;4.13;;;;;;;;;;5072996;28;20033;-66
2021/09/13 07:29:40;;;;;;;10.45;4.03;;;;;;;;;;5072997;28;20029;-66
2021/09/13 07:32:06;;;;;;;7.38;4.60;;;;;;;;;;5073264;28;20115;-65
2021/09/13 07:34:32;;;;;;;11.50;4.28;;;;;;;;;;5073202;28;20027;-65
2021/09/13 07:36:58;;;;;;;6.22;4.00;;;;;;;;;;5072960;28;20041;-65
2021/09/13 07:39:28;;;;;;;8.98;4.30;;;;;;;;;;5072941;28;20144;-65
2021/09/13 07:41:54;;;;;;;14.55;4.85;;;;;;;;;;5073107;28;20413;-66
2021/09/13 07:44:20;;;;;;;10.25;4.32;;;;;;;;;;5072987;28;20032;-66
2021/09/13 07:46:47;;;;;;;12.02;4.03;;;;;;;;;;5072816;28;20108;-71
2021/09/13 07:49:13;;;;;;;10.25;3.85;;;;;;;;;;5073096;28;20138;-67
2021/09/13 07:51:39;;;;;;;6.88;3.92;;;;;;;;;;5073128;28;20031;-65
2021/09/13 07:54:08;;;;;;;7.68;3.72;;;;;;;;;;5072970;28;20115;-66
2021/09/13 07:56:34;;;;;;;10.32;4.13;;;;;;;;;;5073028;28;20428;-66
2021/09/13 07:59:03;;;;;;;7.90;4.25;;;;;;;;;;5072732;28;20110;-65
2021/09/13 08:01:29;;;;;;;13.40;4.35;;;;;;;;;;5072474;28;20393;-66
2021/09/13 08:03:55;;;;;;;9.20;4.10;;;;;;;;;;5072995;28;20033;-66
2021/09/13 08:06:21;;;;;;;9.75;4.35;;;;;;;;;;5072901;28;20075;-66
2021/09/13 08:08:47;;;;;;;9.48;4.75;;;;;;;;;;5072802;28;20033;-65
2021/09/13 08:11:13;;;;;;;9.50;4.93;;;;;;;;;;5072817;28;20106;-66
2021/09/13 08:13:40;;;;;;;13.98;4.38;;;;;;;;;;5072830;28;20037;-65
2021/09/13 08:16:07;;;;;;;11.30;4.20;;;;;;;;;;5072773;28;20020;-65
2021/09/13 08:18:33;;;;;;;9.68;4.65;;;;;;;;;;5072793;28;20454;-66
2021/09/13 08:20:59;;;;;;;5.57;3.75;;;;;;;;;;5072606;28;20029;-65
2021/09/13 08:23:25;;;;;;;8.88;3.95;;;;;;;;;;5072835;28;20115;-67
2021/09/13 08:25:51;;;;;;;7.20;4.13;;;;;;;;;;5072672;28;20032;-65
2021/09/13 08:28:20;;;;;;;12.85;4.22;;;;;;;;;;5072888;28;20103;-65
2021/09/13 08:30:47;;;;;;;8.63;4.40;;;;;;;;;;5072716;28;20048;-65
2021/09/13 08:33:13;;;;;;;9.68;3.88;;;;;;;;;;5072741;28;20064;-65
2021/09/13 08:35:39;;;;;;;11.52;4.60;;;;;;;;;;5072446;28;20037;-65
2021/09/13 08:38:05;;;;;;;4.65;3.95;;;;;;;;;;5072464;28;20033;-66
2021/09/13 08:40:31;;;;;;;7.75;4.00;;;;;;;;;;5072525;28;20037;-65
2021/09/13 08:42:58;;;;;;;9.98;3.97;;;;;;;;;;5071255;28;20040;-65
2021/09/13 08:45:35;;;;;;;11.13;4.05;;;;;;;;;;5072334;28;20519;-65
2021/09/13 08:52:59;;;;;;;;;;;;;;;;;;5072808;28;20404;-65
2021/09/13 08:55:26;;;;;;;11.60;3.90;;;;;;;;;;5070911;28;20379;-66
2021/09/13 08:57:52;;;;;;;11.18;4.45;;;;;;;;;;5072035;28;20048;-66
2021/09/13 09:00:19;;;;;;;8.85;4.72;;;;;;;;;;5072271;28;20048;-65
2021/09/13 09:02:45;;;;;;;8.10;4.30;;;;;;;;;;5072216;28;20041;-65
2021/09/13 09:05:11;;;;;;;7.95;4.03;;;;;;;;;;5072164;28;20090;-66
2021/09/13 09:07:54;;;;;;;6.75;3.83;;;;;;;;;;5072186;28;20042;-65
2021/09/13 09:10:25;;;;;;;11.48;3.78;;;;;;;;;;5072066;28;20115;-65
2021/09/13 09:12:57;;;;;;;7.78;3.75;;;;;;;;;;5072565;28;20025;-65
2021/09/13 09:15:23;;;;;;;;;;;;;;;;;;5076085;28;20040;-67
2021/09/13 09:17:53;;;;;;;10.48;4.00;;;;;;;;;;5075733;28;19912;-65
2021/09/13 09:20:19;;;;;;;13.15;3.97;;;;;;;;;;5075609;28;20442;-65
2021/09/13 09:22:46;;;;;;;8.50;3.90;;;;;;;;;;5075505;28;20021;-65
2021/09/13 09:25:25;;;;;;;7.40;3.53;;;;;;;;;;5075534;28;20060;-67
2021/09/13 09:27:59;;;;;;;9.38;3.78;;;;;;;;;;5075316;28;20119;-67
2021/09/13 09:30:41;;;;;;;10.98;4.35;;;;;;;;;;5075798;28;20029;-65
2021/09/13 09:33:11;;;;;;;6.18;3.22;;;;;;;;;;5075455;28;20032;-65
2021/09/13 09:35:41;;;;;;;10.02;3.60;;;;;;;;;;5075494;28;20021;-66
2021/09/13 09:38:07;;;;;;;7.07;3.30;;;;;;;;;;5075169;28;20063;-66
2021/09/13 09:40:33;;;;;;;6.82;3.60;;;;;;;;;;5075338;28;20036;-65
2021/09/13 09:43:03;;;;;;;6.45;3.83;;;;;;;;;;5075445;28;20097;-65
2021/09/13 09:45:29;;;;;;;6.28;3.70;;;;;;;;;;5074277;28;20385;-65
2021/09/13 09:48:09;;;;;;;7.28;3.70;;;;;;;;;;5075177;28;20032;-66
2021/09/13 09:50:35;;;;;;;7.47;3.53;;;;;;;;;;5074988;28;20473;-65
2021/09/13 09:53:14;;;;;;;7.75;3.63;;;;;;;;;;5073493;28;20440;-65
2021/09/13 09:55:40;;;;;;;6.72;3.38;;;;;;;;;;5075048;28;20385;-66
2021/09/13 09:58:10;;;;;;;7.28;3.65;;;;;;;;;;5074585;28;20083;-65
2021/09/13 10:00:38;;;;;;;10.70;4.03;;;;;;;;;;5075056;28;20040;-66
2021/09/13 10:03:04;;;;;;;5.65;3.60;;;;;;;;;;5075048;28;20115;-65
2021/09/13 10:05:31;;;;;;;6.28;3.38;;;;;;;;;;5074938;28;20029;-65
2021/09/13 10:07:57;;;;;;;7.25;3.20;;;;;;;;;;5074719;28;20492;-67
2021/09/13 10:10:28;;;;;;;6.82;3.88;;;;;;;;;;5074752;28;20508;-66
2021/09/13 10:12:54;;;;;;;5.83;3.47;;;;;;;;;;5074829;28;20029;-66
2021/09/13 10:15:20;;;;;;;7.68;3.50;;;;;;;;;;5074424;28;20036;-65
2021/09/13 10:17:47;;;;;;;10.65;3.55;;;;;;;;;;5074331;28;20037;-65
2021/09/13 10:20:13;;;;;;;8.80;3.53;;;;;;;;;;5073234;28;20673;-65
2021/09/13 10:22:44;;;;;;;5.53;3.40;;;;;;;;;;5074346;28;20489;-65
2021/09/13 10:25:11;;;;;;;11.40;3.70;;;;;;;;;;5073869;28;20043;-66
2021/09/13 10:27:48;;;;;;;10.73;3.50;;;;;;;;;;5074238;28;20420;-66
2021/09/13 10:30:18;;;;;;;9.45;3.75;;;;;;;;;;5074285;28;20040;-66
2021/09/13 10:32:45;;;;;;;8.80;4.13;;;;;;;;;;5073922;28;20028;-65
2021/09/13 10:35:12;;;;;;;7.65;3.40;;;;;;;;;;5074107;28;20043;-66
2021/09/13 10:37:40;;;;;;;7.15;3.60;;;;;;;;;;5073986;28;20040;-66
2021/09/13 10:40:07;;;;;;;5.32;3.42;;;;;;;;;;5074037;28;20032;-66
2021/09/13 10:42:39;;;;;;;6.78;3.33;;;;;;;;;;5073771;28;20041;-65
2021/09/13 10:45:07;;;;;;;6.45;3.50;;;;;;;;;;5073980;28;20543;-66
2021/09/13 10:47:33;;;;;;;8.05;3.90;;;;;;;;;;5074093;28;20512;-65
2021/09/13 10:50:26;;;;;;;9.75;3.70;;;;;;;;;;5073861;28;20037;-65
2021/09/13 10:52:53;;;;;;;5.10;3.35;;;;;;;;;;5070909;28;20033;-65
2021/09/13 10:55:20;;;;;;;4.68;3.30;;;;;;;;;;5074358;28;20036;-65
2021/09/13 10:57:52;;;;;;;11.73;3.83;;;;;;;;;;5073476;28;20052;-65
2021/09/13 11:00:37;;;;;;;9.98;3.35;;;;;;;;;;5073725;28;20040;-65
2021/09/13 11:03:21;;;;;;;10.90;3.35;;;;;;;;;;5073326;28;20036;-65
2021/09/13 11:05:47;;;;;;;6.40;3.60;;;;;;;;;;5073479;28;20119;-65
2021/09/13 11:08:23;;;;;;;10.38;3.72;;;;;;;;;;5073732;28;20437;-65
2021/09/13 11:10:49;;;;;;;9.50;3.75;;;;;;;;;;5073758;28;20045;-65
2021/09/13 11:13:18;;;;;;;7.00;3.17;;;;;;;;;;5073273;28;20033;-67
2021/09/13 11:15:51;;;;;;;5.95;3.50;;;;;;;;;;5073538;28;20032;-65
2021/09/13 11:18:32;;;;;;;8.55;3.42;;;;;;;;;;5073259;28;20041;-65
2021/09/13 11:21:20;;;;;;;6.47;3.40;;;;;;;;;;5073685;28;20435;-65
2021/09/13 11:23:46;;;;;;;6.85;3.42;;;;;;;;;;5073436;28;20385;-65
2021/09/13 11:26:15;;;;;;;9.70;3.33;;;;;;;;;;5073281;28;20106;-65
2021/09/13 11:28:59;;;;;;;9.65;3.50;;;;;;;;;;5073401;28;20475;-71
2021/09/13 11:31:30;;;;;;;7.88;3.30;;;;;;;;;;5073349;28;20064;-65
2021/09/13 11:33:56;;;;;;;5.25;3.20;;;;;;;;;;5073323;28;20037;-65
2021/09/13 11:36:23;;;;;;;9.40;3.33;;;;;;;;;;5072489;28;20036;-65
2021/09/13 11:39:06;;;;;;;6.20;3.40;;;;;;;;;;5072913;28;20040;-65
2021/09/13 11:41:33;;;;;;;6.80;3.47;;;;;;;;;;5073289;28;20032;-65
2021/09/13 11:44:03;;;;;;;5.53;3.17;;;;;;;;;;5072993;28;20028;-65
2021/09/13 11:46:30;;;;;;;8.13;3.60;;;;;;;;;;5072995;28;20060;-65
2021/09/13 11:49:13;;;;;;;4.22;3.25;;;;;;;;;;5072960;28;20032;-65
2021/09/13 11:51:58;;;;;;;6.82;2.95;;;;;;;;;;5072946;28;20108;-69
2021/09/13 11:54:24;;;;;;;5.28;3.50;;;;;;;;;;5072876;28;20086;-64
2021/09/13 11:56:51;;;;;;;10.52;3.50;;;;;;;;;;5072409;28;20032;-65
2021/09/13 11:59:23;;;;;;;5.85;3.22;;;;;;;;;;5072898;28;20068;-65
2021/09/13 12:02:03;;;;;;;5.93;3.17;;;;;;;;;;5072920;28;20040;-66
2021/09/13 12:04:29;;;;;;;4.80;2.85;;;;;;;;;;5072690;28;20032;-65
2021/09/13 12:07:09;;;;;;;7.22;2.95;;;;;;;;;;5072716;28;20108;-67
2021/09/13 12:09:35;;;;;;;3.97;3.03;;;;;;;;;;5072901;28;20511;-65
2021/09/13 12:12:02;;;;;;;5.78;3.17;;;;;;;;;;5072803;28;20037;-64
2021/09/13 12:14:28;;;;;;;10.02;3.05;;;;;;;;;;5072497;28;20071;-70
2021/09/13 12:17:11;;;;;;;5.20;3.00;;;;;;;;;;5072668;28;20056;-65
2021/09/13 12:19:38;;;;;;;3.53;2.90;;;;;;;;;;5072516;28;20055;-64
2021/09/13 12:22:05;;;;;;;6.05;2.97;;;;;;;;;;5071087;28;20029;-64
2021/09/13 12:24:32;;;;;;;5.63;2.92;;;;;;;;;;5072611;28;20366;-65
2021/09/13 12:26:58;;;;;;;6.90;3.05;;;;;;;;;;5072555;28;20036;-65
2021/09/13 12:29:24;;;;;;;4.93;3.22;;;;;;;;;;5072635;28;20094;-65
2021/09/13 12:31:50;;;;;;;6.72;3.15;;;;;;;;;;5072604;28;20087;-65
2021/09/13 12:34:16;;;;;;;6.00;3.33;;;;;;;;;;5072708;28;20093;-65
2021/09/13 12:36:42;;;;;;;6.72;3.50;;;;;;;;;;5072835;28;20025;-65
2021/09/13 12:39:09;;;;;;;5.85;2.97;;;;;;;;;;5072402;28;20044;-64
2021/09/13 12:41:43;;;;;;;13.20;3.28;;;;;;;;;;5071047;28;20032;-67
2021/09/13 12:44:17;;;;;;;5.88;3.33;;;;;;;;;;5072550;28;20048;-64
2021/09/13 12:46:50;;;;;;;6.13;3.15;;;;;;;;;;5072709;28;20032;-65
2021/09/13 12:49:16;;;;;;;11.82;3.25;;;;;;;;;;5076373;28;20036;-70
2021/09/13 12:51:53;;;;;;;4.32;2.90;;;;;;;;;;5076070;28;20029;-65
2021/09/13 12:54:26;;;;;;;7.47;3.35;;;;;;;;;;5075942;28;20033;-65
2021/09/13 12:56:53;;;;;;;6.32;3.20;;;;;;;;;;5076239;28;20103;-65
2021/09/13 12:59:22;;;;;;;5.60;3.30;;;;;;;;;;5076197;28;20178;-65
2021/09/13 13:01:49;;;;;;;6.32;3.20;;;;;;;;;;5076269;28;20029;-65
2021/09/13 13:04:17;;;;;;;11.23;3.13;;;;;;;;;;5075911;28;20036;-65
2021/09/13 13:06:43;;;;;;;11.15;3.00;;;;;;;;;;5075701;28;20104;-65
2021/09/13 13:09:11;;;;;;;5.10;3.50;;;;;;;;;;5075860;28;20481;-65
2021/09/13 13:11:38;;;;;;;8.82;2.95;;;;;;;;;;5076010;28;20082;-65
2021/09/13 13:14:06;;;;;;;5.07;2.70;;;;;;;;;;5075817;28;20036;-64
2021/09/13 13:16:35;;;;;;;7.22;3.08;;;;;;;;;;5075748;28;20056;-64
2021/09/13 13:19:01;;;;;;;10.45;2.78;;;;;;;;;;5075374;28;20137;-65
2021/09/13 13:21:27;;;;;;;8.52;3.20;;;;;;;;;;5074664;28;20503;-65
2021/09/13 13:23:53;;;;;;;7.97;2.85;;;;;;;;;;5075606;28;20028;-65
2021/09/13 13:26:19;;;;;;;5.07;2.90;;;;;;;;;;5075685;28;20026;-65
2021/09/13 13:28:45;;;;;;;5.55;3.40;;;;;;;;;;5075630;28;20040;-64
2021/09/13 13:31:11;;;;;;;7.50;3.13;;;;;;;;;;5075292;28;20028;-65
2021/09/13 13:33:37;;;;;;;6.72;2.65;;;;;;;;;;5073883;28;20089;-65
2021/09/13 13:36:04;;;;;;;3.72;2.58;;;;;;;;;;5075313;28;20500;-65
2021/09/13 13:38:29;;;;;;;7.88;2.95;;;;;;;;;;5075436;28;20500;-65
2021/09/13 13:40:56;;;;;;;7.03;2.67;;;;;;;;;;5075175;28;20037;-65
2021/09/13 13:43:22;;;;;;;12.77;3.83;;;;;;;;;;5073963;28;20528;-65
2021/09/13 13:45:49;;;;;;;6.60;2.90;;;;;;;;;;5075269;28;20064;-65
2021/09/13 13:48:15;;;;;;;4.13;3.35;;;;;;;;;;5075167;28;20033;-66
2021/09/13 13:50:41;;;;;;;5.80;2.72;;;;;;;;;;5074942;28;20033;-65
2021/09/13 13:53:08;;;;;;;5.63;2.75;;;;;;;;;;5075119;28;20071;-65
2021/09/13 13:55:34;;;;;;;4.50;2.60;;;;;;;;;;5074989;28;20028;-64
2021/09/13 13:58:00;;;;;;;6.63;3.45;;;;;;;;;;5074446;28;20053;-65
2021/09/13 14:00:26;;;;;;;5.93;2.95;;;;;;;;;;5074169;28;20041;-65
2021/09/13 14:02:52;;;;;;;6.53;3.42;;;;;;;;;;5075030;28;20082;-65
2021/09/13 14:05:18;;;;;;;7.65;3.17;;;;;;;;;;5074842;28;20470;-65
2021/09/13 14:07:45;;;;;;;7.63;2.80;;;;;;;;;;5075033;28;20397;-69
2021/09/13 14:10:12;;;;;;;7.47;3.13;;;;;;;;;;5073461;28;20115;-65
2021/09/13 14:12:38;;;;;;;5.68;2.83;;;;;;;;;;5074733;28;20032;-65
2021/09/13 14:15:06;;;;;;;5.57;3.40;;;;;;;;;;5074652;28;20044;-64
2021/09/13 14:17:33;;;;;;;10.38;3.08;;;;;;;;;;5074493;28;20032;-65
2021/09/13 14:19:59;;;;;;;7.60;3.38;;;;;;;;;;5074548;28;20039;-66
2021/09/13 14:22:26;;;;;;;8.77;3.03;;;;;;;;;;5074535;28;20558;-67
2021/09/13 14:24:53;;;;;;;8.80;3.22;;;;;;;;;;5074713;28;20485;-65
2021/09/13 14:27:19;;;;;;;8.90;2.88;;;;;;;;;;5074439;28;20058;-65
2021/09/13 14:29:45;;;;;;;5.93;3.22;;;;;;;;;;5074184;28;20040;-66
2021/09/13 14:32:11;;;;;;;6.63;3.13;;;;;;;;;;5074160;28;20484;-65
2021/09/13 14:34:37;;;;;;;11.88;3.50;;;;;;;;;;5074282;28;20049;-65
2021/09/13 14:37:03;;;;;;;5.40;3.25;;;;;;;;;;5073006;28;20481;-67
2021/09/13 14:39:29;;;;;;;7.78;3.35;;;;;;;;;;5074245;28;20110;-65
2021/09/13 14:41:55;;;;;;;4.43;3.30;;;;;;;;;;5074089;28;20166;-69
2021/09/13 14:44:21;;;;;;;9.27;3.83;;;;;;;;;;5074137;28;20488;-65
2021/09/13 14:46:48;;;;;;;11.13;3.63;;;;;;;;;;5073881;28;20040;-65